DAL811 KLAX-KMIA
Flight info
| Callsign | DAL811 |
|---|---|
| Flight time | N/A |
| Altitude | 33000 |
| Route | DOTSS2 CNERY BLH SALOM EWM CRGER IAH J86 LEV/N0431F350 BACCA Y290 GAWKS FROGZ5 |
| Aircraft | A21N/M-SDE2E3FGHIRWXY/LB1 |
Departure
| Time | N/A |
|---|---|
| Airport | Los Angeles International Airport (KLAX) |
Arrival
| Time | 2026-05-03 20:58 |
|---|---|
| Airport | Miami International Airport (KMIA) |
| Time | Latitude | Longitude | Altitude | Speed | Heading |
|---|---|---|---|---|---|
| 2026-05-03 20:15 | 27.64718 | -85.50141 | 35133 ft | 535 kts | 120° |
| 2026-05-03 20:15 | 27.61962 | -85.42341 | 35113 ft | 535 kts | 120° |
| 2026-05-03 20:16 | 27.59271 | -85.34504 | 35115 ft | 542 kts | 115° |
| 2026-05-03 20:16 | 27.57691 | -85.26099 | 35124 ft | 549 kts | 108° |
| 2026-05-03 20:17 | 27.56251 | -85.17661 | 35120 ft | 549 kts | 108° |
| 2026-05-03 20:17 | 27.54783 | -85.09255 | 35116 ft | 549 kts | 108° |
| 2026-05-03 20:18 | 27.53298 | -85.00819 | 35114 ft | 550 kts | 108° |
| 2026-05-03 20:18 | 27.51809 | -84.92315 | 35119 ft | 551 kts | 108° |
| 2026-05-03 20:19 | 27.50309 | -84.83848 | 35115 ft | 551 kts | 108° |
| 2026-05-03 20:19 | 27.48812 | -84.75406 | 35109 ft | 550 kts | 108° |
| 2026-05-03 20:20 | 27.47304 | -84.66944 | 35110 ft | 551 kts | 108° |
| 2026-05-03 20:20 | 27.45799 | -84.58519 | 35096 ft | 552 kts | 108° |
| 2026-05-03 20:21 | 27.44283 | -84.50031 | 35098 ft | 552 kts | 108° |
| 2026-05-03 20:21 | 27.42758 | -84.41561 | 35102 ft | 552 kts | 108° |
| 2026-05-03 20:22 | 27.41228 | -84.33076 | 35098 ft | 552 kts | 108° |
| 2026-05-03 20:22 | 27.39687 | -84.24599 | 35096 ft | 552 kts | 109° |
| 2026-05-03 20:23 | 27.38140 | -84.16122 | 35097 ft | 553 kts | 109° |
| 2026-05-03 20:23 | 27.36594 | -84.07650 | 35096 ft | 553 kts | 108° |
| 2026-05-03 20:24 | 27.35055 | -83.99228 | 35092 ft | 553 kts | 109° |
| 2026-05-03 20:24 | 27.33482 | -83.90744 | 35057 ft | 552 kts | 108° |
| 2026-05-03 20:25 | 27.31929 | -83.82276 | 35081 ft | 552 kts | 108° |
| 2026-05-03 20:25 | 27.30381 | -83.73879 | 35080 ft | 551 kts | 108° |
| 2026-05-03 20:26 | 27.28794 | -83.65402 | 35083 ft | 551 kts | 109° |
| 2026-05-03 20:26 | 27.27235 | -83.57012 | 35073 ft | 552 kts | 108° |
| 2026-05-03 20:27 | 27.25658 | -83.48577 | 35066 ft | 551 kts | 109° |
| 2026-05-03 20:27 | 27.24062 | -83.40114 | 35064 ft | 551 kts | 109° |
| 2026-05-03 20:28 | 27.22478 | -83.31683 | 35067 ft | 551 kts | 109° |
| 2026-05-03 20:28 | 27.20894 | -83.23292 | 35070 ft | 551 kts | 109° |
| 2026-05-03 20:29 | 27.19289 | -83.14853 | 35055 ft | 550 kts | 109° |
| 2026-05-03 20:29 | 27.17683 | -83.06465 | 35057 ft | 548 kts | 109° |
| 2026-05-03 20:30 | 27.16089 | -82.98096 | 35061 ft | 546 kts | 109° |
| 2026-05-03 20:30 | 27.14504 | -82.89824 | 35060 ft | 544 kts | 109° |
| 2026-05-03 20:31 | 27.12180 | -82.81882 | 35056 ft | 523 kts | 127° |
| 2026-05-03 20:31 | 27.08403 | -82.74957 | 35067 ft | 519 kts | 132° |
| 2026-05-03 20:32 | 27.04564 | -82.68068 | 35074 ft | 522 kts | 131° |
| 2026-05-03 20:32 | 27.00770 | -82.61128 | 35065 ft | 522 kts | 131° |
| 2026-05-03 20:33 | 26.96978 | -82.54204 | 35035 ft | 518 kts | 131° |
| 2026-05-03 20:33 | 26.93177 | -82.47347 | 35054 ft | 516 kts | 131° |
| 2026-05-03 20:33 | 26.91110 | -82.44159 | 35053 ft | 504 kts | 141° |
| 2026-05-03 20:34 | 26.88610 | -82.41437 | 35065 ft | 492 kts | 150° |
| 2026-05-03 20:34 | 26.83405 | -82.36513 | 35062 ft | 494 kts | 150° |
| 2026-05-03 20:35 | 26.78184 | -82.31520 | 35060 ft | 492 kts | 150° |
| 2026-05-03 20:35 | 26.73070 | -82.26612 | 35065 ft | 488 kts | 150° |
| 2026-05-03 20:36 | 26.67844 | -82.21611 | 35062 ft | 489 kts | 150° |
| 2026-05-03 20:36 | 26.62643 | -82.16645 | 35028 ft | 491 kts | 150° |
| 2026-05-03 20:37 | 26.57463 | -82.11703 | 35056 ft | 494 kts | 150° |
| 2026-05-03 20:37 | 26.52250 | -82.06687 | 35058 ft | 493 kts | 148° |
| 2026-05-03 20:37 | 26.49685 | -82.04105 | 34903 ft | 493 kts | 148° |
| 2026-05-03 20:38 | 26.47155 | -82.01557 | 34507 ft | 495 kts | 148° |
| 2026-05-03 20:38 | 26.44615 | -81.98998 | 34235 ft | 496 kts | 148° |
| 2026-05-03 20:38 | 26.42030 | -81.96400 | 33983 ft | 498 kts | 148° |
| 2026-05-03 20:38 | 26.39450 | -81.93803 | 33559 ft | 495 kts | 148° |
| 2026-05-03 20:39 | 26.36921 | -81.91256 | 32704 ft | 491 kts | 147° |
| 2026-05-03 20:39 | 26.34372 | -81.88692 | 31698 ft | 490 kts | 147° |
| 2026-05-03 20:39 | 26.31844 | -81.86158 | 30680 ft | 489 kts | 146° |
| 2026-05-03 20:39 | 26.29329 | -81.83635 | 29702 ft | 487 kts | 145° |
| 2026-05-03 20:40 | 26.26821 | -81.81126 | 28720 ft | 486 kts | 145° |
| 2026-05-03 20:40 | 26.24414 | -81.78431 | 27810 ft | 490 kts | 137° |
| 2026-05-03 20:40 | 26.22490 | -81.75280 | 26950 ft | 497 kts | 124° |
| 2026-05-03 20:40 | 26.20961 | -81.71854 | 26115 ft | 496 kts | 121° |
| 2026-05-03 20:41 | 26.19486 | -81.68402 | 25308 ft | 491 kts | 121° |
| 2026-05-03 20:41 | 26.18024 | -81.65000 | 24495 ft | 487 kts | 121° |
| 2026-05-03 20:41 | 26.16569 | -81.61635 | 23689 ft | 480 kts | 121° |
| 2026-05-03 20:41 | 26.15117 | -81.58298 | 22759 ft | 473 kts | 121° |
| 2026-05-03 20:42 | 26.13696 | -81.55038 | 21916 ft | 465 kts | 121° |
| 2026-05-03 20:42 | 26.12302 | -81.51833 | 21109 ft | 457 kts | 121° |
| 2026-05-03 20:42 | 26.10916 | -81.48654 | 20358 ft | 449 kts | 121° |
| 2026-05-03 20:42 | 26.09572 | -81.45577 | 19652 ft | 441 kts | 121° |
| 2026-05-03 20:43 | 26.08247 | -81.42546 | 18978 ft | 434 kts | 121° |
| 2026-05-03 20:43 | 26.06918 | -81.39514 | 18305 ft | 433 kts | 120° |
| 2026-05-03 20:43 | 26.05597 | -81.36497 | 17569 ft | 432 kts | 120° |
| 2026-05-03 20:43 | 26.04303 | -81.33519 | 16861 ft | 431 kts | 120° |
| 2026-05-03 20:44 | 26.02992 | -81.30503 | 16182 ft | 429 kts | 120° |
| 2026-05-03 20:44 | 26.01706 | -81.27542 | 15541 ft | 426 kts | 119° |
| 2026-05-03 20:44 | 26.00415 | -81.24575 | 14909 ft | 424 kts | 119° |
| 2026-05-03 20:44 | 25.99145 | -81.21660 | 14277 ft | 419 kts | 119° |
| 2026-05-03 20:45 | 25.97883 | -81.18771 | 13616 ft | 409 kts | 119° |
| 2026-05-03 20:45 | 25.96656 | -81.15954 | 12946 ft | 400 kts | 118° |
| 2026-05-03 20:45 | 25.95466 | -81.13225 | 12337 ft | 390 kts | 119° |
| 2026-05-03 20:45 | 25.94281 | -81.10517 | 11739 ft | 384 kts | 118° |
| 2026-05-03 20:46 | 25.93128 | -81.07874 | 11221 ft | 377 kts | 118° |
| 2026-05-03 20:46 | 25.91996 | -81.05296 | 10916 ft | 361 kts | 119° |
| 2026-05-03 20:46 | 25.90971 | -81.02848 | 10673 ft | 345 kts | 116° |
| 2026-05-03 20:46 | 25.90050 | -81.00457 | 10396 ft | 331 kts | 116° |
| 2026-05-03 20:47 | 25.89168 | -80.98147 | 10100 ft | 317 kts | 116° |
| 2026-05-03 20:47 | 25.88310 | -80.95907 | 9795 ft | 312 kts | 116° |
| 2026-05-03 20:47 | 25.87471 | -80.93717 | 9414 ft | 310 kts | 116° |
| 2026-05-03 20:47 | 25.86621 | -80.91502 | 9050 ft | 308 kts | 116° |
| 2026-05-03 20:48 | 25.85789 | -80.89334 | 8639 ft | 305 kts | 116° |
| 2026-05-03 20:48 | 25.84951 | -80.87161 | 8221 ft | 303 kts | 116° |
| 2026-05-03 20:48 | 25.84132 | -80.85031 | 7796 ft | 301 kts | 116° |
| 2026-05-03 20:48 | 25.83383 | -80.83080 | 7406 ft | 299 kts | 116° |
| 2026-05-03 20:49 | 25.82581 | -80.80991 | 7141 ft | 290 kts | 116° |
| 2026-05-03 20:49 | 25.81807 | -80.78972 | 6937 ft | 276 kts | 116° |
| 2026-05-03 20:49 | 25.81068 | -80.77055 | 6724 ft | 264 kts | 116° |
| 2026-05-03 20:49 | 25.80369 | -80.75238 | 6547 ft | 251 kts | 117° |
| 2026-05-03 20:50 | 25.79711 | -80.73526 | 6406 ft | 234 kts | 117° |
| 2026-05-03 20:50 | 25.79101 | -80.71940 | 6327 ft | 212 kts | 117° |
| 2026-05-03 20:50 | 25.78755 | -80.70941 | 6222 ft | 206 kts | 112° |
| 2026-05-03 20:50 | 25.78683 | -80.68856 | 5801 ft | 205 kts | 83° |
| 2026-05-03 20:51 | 25.78822 | -80.67821 | 5559 ft | 204 kts | 83° |
| 2026-05-03 20:51 | 25.79101 | -80.65764 | 5103 ft | 201 kts | 83° |
| 2026-05-03 20:51 | 25.79234 | -80.64741 | 5008 ft | 201 kts | 83° |
| 2026-05-03 20:51 | 25.79430 | -80.63194 | 4988 ft | 202 kts | 83° |
| 2026-05-03 20:52 | 25.79610 | -80.61670 | 5014 ft | 202 kts | 83° |
| 2026-05-03 20:52 | 25.79790 | -80.60127 | 5038 ft | 200 kts | 83° |
| 2026-05-03 20:52 | 25.79982 | -80.58609 | 5029 ft | 200 kts | 83° |
| 2026-05-03 20:52 | 25.80181 | -80.57067 | 4938 ft | 200 kts | 83° |
| 2026-05-03 20:53 | 25.80378 | -80.55553 | 4609 ft | 198 kts | 83° |
| 2026-05-03 20:53 | 25.80572 | -80.54059 | 4264 ft | 195 kts | 83° |
| 2026-05-03 20:53 | 25.80758 | -80.52563 | 4016 ft | 196 kts | 83° |
| 2026-05-03 20:53 | 25.80938 | -80.51059 | 3980 ft | 196 kts | 84° |
| 2026-05-03 20:54 | 25.80884 | -80.49571 | 3959 ft | 191 kts | 99° |
| 2026-05-03 20:54 | 25.80393 | -80.46700 | 3286 ft | 188 kts | 103° |
| 2026-05-03 20:54 | 25.80125 | -80.45287 | 2952 ft | 185 kts | 101° |
| 2026-05-03 20:55 | 25.79960 | -80.43882 | 2616 ft | 183 kts | 100° |
| 2026-05-03 20:55 | 25.79797 | -80.42497 | 2276 ft | 181 kts | 93° |
| 2026-05-03 20:55 | 25.79827 | -80.41131 | 2040 ft | 167 kts | 87° |
| 2026-05-03 20:55 | 25.79872 | -80.39973 | 1817 ft | 140 kts | 87° |
| 2026-05-03 20:56 | 25.79915 | -80.38903 | 1545 ft | 135 kts | 87° |
| 2026-05-03 20:56 | 25.79959 | -80.37908 | 1374 ft | 123 kts | 86° |
| 2026-05-03 20:56 | 25.79999 | -80.36974 | 1216 ft | 126 kts | 86° |
| 2026-05-03 20:56 | 25.80047 | -80.35986 | 1101 ft | 127 kts | 86° |
| 2026-05-03 20:57 | 25.80109 | -80.35006 | 926 ft | 127 kts | 85° |
| 2026-05-03 20:57 | 25.80156 | -80.34045 | 750 ft | 125 kts | 87° |
| 2026-05-03 20:57 | 25.80177 | -80.33088 | 594 ft | 124 kts | 85° |
| 2026-05-03 20:57 | 25.80209 | -80.32146 | 429 ft | 123 kts | 86° |
| 2026-05-03 20:58 | 25.80245 | -80.31197 | 246 ft | 123 kts | 85° |
| 2026-05-03 20:58 | 25.80283 | -80.30255 | 71 ft | 122 kts | 85° |
| 2026-05-03 20:58 | 25.80320 | -80.29346 | 21 ft | 104 kts | 86° |
| 2026-05-03 20:58 | 25.80341 | -80.28950 | 21 ft | 32 kts | 88° |
| 2026-05-03 20:59 | 25.80344 | -80.28746 | 21 ft | 22 kts | 92° |
| 2026-05-03 20:59 | 25.80325 | -80.28631 | 21 ft | 10 kts | 114° |
| 2026-05-03 20:59 | 25.80283 | -80.28569 | 21 ft | 9 kts | 140° |
| 2026-05-03 20:59 | 25.80248 | -80.28548 | 21 ft | 5 kts | 166° |
| 2026-05-03 21:00 | 25.80239 | -80.28546 | 21 ft | 1 kts | 173° |
| 2026-05-03 21:00 | 25.80223 | -80.28544 | 21 ft | 6 kts | 175° |
| 2026-05-03 21:00 | 25.80142 | -80.28539 | 21 ft | 11 kts | 177° |
| 2026-05-03 21:00 | 25.80067 | -80.28535 | 21 ft | 9 kts | 182° |
| 2026-05-03 21:01 | 25.80026 | -80.28595 | 21 ft | 13 kts | 266° |
| 2026-05-03 21:01 | 25.80022 | -80.28684 | 22 ft | 8 kts | 268° |
| 2026-05-03 21:01 | 25.80016 | -80.28750 | 22 ft | 10 kts | 268° |
| 2026-05-03 21:01 | 25.79985 | -80.28824 | 21 ft | 13 kts | 199° |
| 2026-05-03 21:02 | 25.79890 | -80.28825 | 21 ft | 14 kts | 178° |
| 2026-05-03 21:02 | 25.79794 | -80.28820 | 21 ft | 15 kts | 177° |
| 2026-05-03 21:02 | 25.79679 | -80.28814 | 21 ft | 18 kts | 177° |
| 2026-05-03 21:02 | 25.79546 | -80.28807 | 20 ft | 20 kts | 177° |
| 2026-05-03 21:03 | 25.79420 | -80.28802 | 20 ft | 14 kts | 177° |
| 2026-05-03 21:03 | 25.79340 | -80.28791 | 20 ft | 10 kts | 155° |
| 2026-05-03 21:03 | 25.79309 | -80.28717 | 20 ft | 12 kts | 92° |
| 2026-05-03 21:03 | 25.79310 | -80.28615 | 20 ft | 14 kts | 102° |
| 2026-05-03 21:04 | 25.79268 | -80.28507 | 21 ft | 16 kts | 119° |
| 2026-05-03 21:04 | 25.79211 | -80.28413 | 21 ft | 12 kts | 139° |
| 2026-05-03 21:04 | 25.79153 | -80.28341 | 21 ft | 14 kts | 115° |
| 2026-05-03 21:04 | 25.79100 | -80.28245 | 21 ft | 15 kts | 124° |
| 2026-05-03 21:05 | 25.79043 | -80.28136 | 21 ft | 17 kts | 120° |
| 2026-05-03 21:05 | 25.78983 | -80.28021 | 21 ft | 18 kts | 119° |
| 2026-05-03 21:05 | 25.78941 | -80.27927 | 21 ft | 11 kts | 103° |
| 2026-05-03 21:05 | 25.78948 | -80.27852 | 23 ft | 11 kts | 30° |
| 2026-05-03 21:06 | 25.78959 | -80.27852 | 21 ft | 1 kts | 327° |
| 2026-05-03 21:06 | 25.78975 | -80.27851 | 21 ft | 4 kts | 22° |
| 2026-05-03 21:06 | 25.79007 | -80.27824 | 21 ft | 7 kts | 28° |
| 2026-05-03 21:06 | 25.79041 | -80.27805 | 21 ft | 5 kts | 26° |
| 2026-05-03 21:07 | 25.79082 | -80.27785 | 21 ft | 7 kts | 17° |
| 2026-05-03 21:07 | 25.79125 | -80.27770 | 21 ft | 4 kts | 33° |
| 2026-05-03 21:07 | 25.79131 | -80.27745 | 21 ft | 4 kts | 82° |
| 2026-05-03 21:07 | 25.79132 | -80.27740 | 21 ft | 1 kts | 76° |
| 2026-05-03 21:08 | 25.79133 | -80.27723 | 21 ft | 3 kts | 84° |
| 2026-05-03 21:08 | 25.79134 | -80.27712 | 21 ft | 0 kts | 84° |
| 2026-05-03 21:08 | 25.79135 | -80.27709 | 21 ft | 1 kts | 85° |
| 2026-05-03 21:08 | 25.79135 | -80.27704 | 21 ft | 0 kts | 86° |